Weather at Pitt Meadows Airport

Public forecast

Using degrees Celsius for public forecast. Weather courtesy of forecast.io.

Closest aviation weather report (METAR) to Pitt Meadows Airport

Closest report is Abbotsford Airport, 17.9 nm (33.1 km) SE. Retrieved 2021/01/19 10:00 UTC (42 minutes ago):

CYXX 191000Z CCA 01004KT 15SM FEW210 00/M01 A3055 RMK CI2 FROIN SLP348

Closest aviation forecast (TAF) to Pitt Meadows Airport

Closest forecast is Abbotsford Airport, 17.9 nm (33.1 km) SE. Retrieved 2021/01/19 06:40 UTC (4 hours ago):

TAF CYXX 190538Z 1906/2006 04005KT P6SM SKC PROB30 1906/1918 1SM BR BKN004 FM191800 VRB03KT P6SM FEW020 SCT200 FM192100 VRB03KT P6SM FEW040 BKN100 FM200300 03006KT P6SM SCT030 BKN080 TEMPO 2003/2006 P6SM -RA OVC030 RMK NXT FCST BY 191200Z